Meloria — IBXK — position and weather

sailwx.info

Track history (hours):
 
Tides and Currents Weather Stations Pressure Air Temp Water Temp Dewpoint Dewpoint Depression Visibility Wind Speed Wind Dir Waves Ship Positions

Meloria

Last reported at 2015-Mar-30 16:33 UTC. Time now 2015-Mar-31 03:17 UTC.
Position N 38°13' E 015°17'.

Length 176 m; draft 7.2 m.

Type: Tanker. MMSI: 247171100.

Date/timePositionNaut miles runAvg speedWind from/ knotsBaromVisibWave heightAir tempDewpointWater temp
2015-Mar-30 16:33N 38°13' E 015°17'0 0.0
2015-Mar-30 15:33N 38°13' E 015°17'0 0.0
2015-Mar-30 14:33N 38°13' E 015°17'0 0.0
2015-Mar-30 13:33N 38°13' E 015°17'0 0.0
2015-Mar-30 12:33N 38°13' E 015°17'0 0.0
2015-Mar-30 11:33N 38°13' E 015°17'0 0.0
2015-Mar-30 10:32N 38°13' E 015°17'0 0.0
2015-Mar-30 09:32N 38°13' E 015°17'0 0.0
2015-Mar-30 08:32N 38°13' E 015°17'0 0.0
2015-Mar-30 07:32N 38°13' E 015°17'0 0.1
2015-Mar-30 06:32N 38°13' E 015°17'0 0.0
2015-Mar-30 05:26N 38°13' E 015°17'0 0.0
2015-Mar-30 04:32N 38°13' E 015°17'0 0.0
2015-Mar-30 03:32N 38°13' E 015°17'0 0.0
2015-Mar-30 02:32N 38°13' E 015°17'0 0.0
2015-Mar-30 01:32N 38°13' E 015°17'0 0.0
2015-Mar-30 00:32N 38°13' E 015°17'0 0.0
2015-Mar-29 23:32N 38°13' E 015°17'0 0.1
2015-Mar-29 22:32N 38°13' E 015°17'0 0.0
2015-Mar-29 21:32N 38°13' E 015°17'0 0.0
2015-Mar-29 20:32N 38°13' E 015°17'0 0.0
2015-Mar-29 19:32N 38°13' E 015°17'0 0.0
2015-Mar-29 18:32N 38°13' E 015°17'0 0.0
2015-Mar-29 17:32N 38°13' E 015°17'0 0.0
2015-Mar-29 16:32N 38°13' E 015°17'0 0.0
2015-Mar-29 15:32N 38°13' E 015°17'0 0.0
2015-Mar-29 14:32N 38°13' E 015°17'0 0.0
2015-Mar-29 13:32N 38°13' E 015°17'0 0.0
2015-Mar-29 12:32N 38°13' E 015°17'0 0.0
2015-Mar-29 11:32N 38°13' E 015°17'0 0.0
2015-Mar-29 10:32N 38°13' E 015°17'0 0.0
2015-Mar-29 09:32N 38°13' E 015°17'0 0.0
2015-Mar-29 08:32N 38°13' E 015°17'2 1.8
2015-Mar-29 07:33N 38°15' E 015°17'14112.5
2015-Mar-28 20:13N 40°26' E 014°11'912.8
2015-Mar-28 19:32N 40°35' E 014°08'1313.0
2015-Mar-28 18:33N 40°46' E 014°17'4 4.0
2015-Mar-28 17:29N 40°50' E 014°18'0 0.0
2015-Mar-28 16:05N 40°50' E 014°18'0 0.0
2015-Mar-28 15:32N 40°50' E 014°18'0 0.0
2015-Mar-28 14:14N 40°50' E 014°18'0 0.0
2015-Mar-28 11:32N 40°50' E 014°18'0 0.0
2015-Mar-28 07:20N 40°50' E 014°18'0 0.0
2015-Mar-28 06:07N 40°50' E 014°18'0 0.0
2015-Mar-28 05:22N 40°50' E 014°18'0 0.0
2015-Mar-28 04:25N 40°50' E 014°18'0 0.0
2015-Mar-28 03:31N 40°50' E 014°18'0 0.0
2015-Mar-28 02:28N 40°50' E 014°18'0 0.0
2015-Mar-27 23:31N 40°50' E 014°18'0 0.0
2015-Mar-27 22:25N 40°50' E 014°18'0 0.0
2015-Mar-27 21:25N 40°50' E 014°18'0 0.0
2015-Mar-27 18:13N 40°50' E 014°18'0 0.0
2015-Mar-27 16:31N 40°50' E 014°18'0 0.0
2015-Mar-27 15:13N 40°50' E 014°18'0 0.0
2015-Mar-27 13:19N 40°50' E 014°18'0 0.0
2015-Mar-27 07:13N 40°50' E 014°18'0 0.0
2015-Mar-27 05:25N 40°50' E 014°18'0 0.0
2015-Mar-27 04:25N 40°50' E 014°18'0 0.0
2015-Mar-27 03:19N 40°50' E 014°18'0 0.0
2015-Mar-27 01:31N 40°50' E 014°18'2 2.3
2015-Mar-27 00:34N 40°48' E 014°18'1 0.9
2015-Mar-26 23:33N 40°47' E 014°18'9 9.4
2015-Mar-26 22:33N 40°38' E 014°13'1111.1
2015-Mar-26 21:33N 40°27' E 014°14'13812.3
2015-Mar-26 10:17N 38°18' E 015°17'6 7.3
2015-Mar-26 09:31N 38°13' E 015°16'0 0.0
2015-Mar-26 08:31N 38°13' E 015°16'0 0.0
2015-Mar-26 07:25N 38°13' E 015°16'0 0.0
2015-Mar-26 06:31N 38°13' E 015°16'0 0.0
2015-Mar-25 18:31N 38°13' E 015°16'0 0.0
2015-Mar-25 17:31N 38°13' E 015°16'0 0.0
2015-Mar-25 16:31N 38°13' E 015°16'0 0.0
2015-Mar-25 15:31N 38°13' E 015°16'0 0.0
2015-Mar-25 14:31N 38°13' E 015°16'0 0.0
2015-Mar-25 13:31N 38°13' E 015°16'0 0.0
2015-Mar-25 12:31N 38°13' E 015°16'0 0.0
2015-Mar-25 10:13N 38°13' E 015°16'0 0.0
2015-Mar-25 09:31N 38°13' E 015°16'0 0.0
2015-Mar-25 08:31N 38°13' E 015°16'0 0.0
2015-Mar-25 07:31N 38°13' E 015°16'0 0.0
2015-Mar-25 06:31N 38°13' E 015°16'0 0.0
2015-Mar-24 18:30N 38°13' E 015°16'0 0.0
2015-Mar-24 17:30N 38°13' E 015°16'0 0.0
2015-Mar-24 16:30N 38°13' E 015°16'0 0.0
2015-Mar-24 15:30N 38°13' E 015°16'147 7.0
2015-Mar-23 18:33N 40°31' E 014°09'1212.0
2015-Mar-23 17:33N 40°42' E 014°14'8 8.4
2015-Mar-23 16:33N 40°50' E 014°18'0 0.0
2015-Mar-23 14:23N 40°50' E 014°18'0 0.0
2015-Mar-23 12:29N 40°50' E 014°18'0 0.0
2015-Mar-23 11:14N 40°50' E 014°18'0 0.0
2015-Mar-23 09:32N 40°50' E 014°18'0 0.0
2015-Mar-23 08:17N 40°50' E 014°18'0 0.0
2015-Mar-23 03:23N 40°50' E 014°18'0 0.0
2015-Mar-22 10:22N 40°50' E 014°18'0 0.0
2015-Mar-22 08:04N 40°50' E 014°18'0 0.0
2015-Mar-22 05:16N 40°50' E 014°18'0 0.0
2015-Mar-22 02:10N 40°50' E 014°18'0 0.0
2015-Mar-22 00:29N 40°50' E 014°18'0 0.0
2015-Mar-21 22:10N 40°50' E 014°18'0 0.0
2015-Mar-21 21:10N 40°50' E 014°18'0 0.0
2015-Mar-21 20:07N 40°50' E 014°18'0 0.0
2015-Mar-21 19:13N 40°50' E 014°18'0 0.0
2015-Mar-21 18:31N 40°50' E 014°18'0 0.0
2015-Mar-21 17:19N 40°50' E 014°18'0 0.0
2015-Mar-21 14:25N 40°50' E 014°18'0 0.0
2015-Mar-21 13:20N 40°50' E 014°18'1 1.2
2015-Mar-21 12:32N 40°49' E 014°18'8 7.8
2015-Mar-21 11:33N 40°43' E 014°14'1212.1
2015-Mar-21 10:33N 40°32' E 014°06'1412.6
2015-Mar-21 09:26N 40°20' E 014°14'  
Track history (hours):
 
Tides and Currents Weather Stations Pressure Air Temp Water Temp Dewpoint Dewpoint Depression Visibility Wind Speed Wind Dir Waves Ship Positions

Meloria

Last reported at 2015-Mar-30 16:33 UTC. Time now 2015-Mar-31 03:17 UTC.
Position N 38°13' E 015°17'.

Length 176 m; draft 7.2 m.

Type: Tanker. MMSI: 247171100.

Date/timePositionNaut miles runAvg speedWind from/ knotsBaromVisibWave heightAir tempDewpointWater temp
2015-Mar-30 16:33N 38°13' E 015°17'0 0.0
2015-Mar-30 15:33N 38°13' E 015°17'0 0.0
2015-Mar-30 14:33N 38°13' E 015°17'0 0.0
2015-Mar-30 13:33N 38°13' E 015°17'0 0.0
2015-Mar-30 12:33N 38°13' E 015°17'0 0.0
2015-Mar-30 11:33N 38°13' E 015°17'0 0.0
2015-Mar-30 10:32N 38°13' E 015°17'0 0.0
2015-Mar-30 09:32N 38°13' E 015°17'0 0.0
2015-Mar-30 08:32N 38°13' E 015°17'0 0.0
2015-Mar-30 07:32N 38°13' E 015°17'0 0.1
2015-Mar-30 06:32N 38°13' E 015°17'0 0.0
2015-Mar-30 05:26N 38°13' E 015°17'0 0.0
2015-Mar-30 04:32N 38°13' E 015°17'0 0.0
2015-Mar-30 03:32N 38°13' E 015°17'0 0.0
2015-Mar-30 02:32N 38°13' E 015°17'0 0.0
2015-Mar-30 01:32N 38°13' E 015°17'0 0.0
2015-Mar-30 00:32N 38°13' E 015°17'0 0.0
2015-Mar-29 23:32N 38°13' E 015°17'0 0.1
2015-Mar-29 22:32N 38°13' E 015°17'0 0.0
2015-Mar-29 21:32N 38°13' E 015°17'0 0.0
2015-Mar-29 20:32N 38°13' E 015°17'0 0.0
2015-Mar-29 19:32N 38°13' E 015°17'0 0.0
2015-Mar-29 18:32N 38°13' E 015°17'0 0.0
2015-Mar-29 17:32N 38°13' E 015°17'0 0.0
2015-Mar-29 16:32N 38°13' E 015°17'0 0.0
2015-Mar-29 15:32N 38°13' E 015°17'0 0.0
2015-Mar-29 14:32N 38°13' E 015°17'0 0.0
2015-Mar-29 13:32N 38°13' E 015°17'0 0.0
2015-Mar-29 12:32N 38°13' E 015°17'0 0.0
2015-Mar-29 11:32N 38°13' E 015°17'0 0.0
2015-Mar-29 10:32N 38°13' E 015°17'0 0.0
2015-Mar-29 09:32N 38°13' E 015°17'0 0.0
2015-Mar-29 08:32N 38°13' E 015°17'2 1.8
2015-Mar-29 07:33N 38°15' E 015°17'14112.5
2015-Mar-28 20:13N 40°26' E 014°11'912.8
2015-Mar-28 19:32N 40°35' E 014°08'1313.0
2015-Mar-28 18:33N 40°46' E 014°17'4 4.0
2015-Mar-28 17:29N 40°50' E 014°18'0 0.0
2015-Mar-28 16:05N 40°50' E 014°18'0 0.0
2015-Mar-28 15:32N 40°50' E 014°18'0 0.0
2015-Mar-28 14:14N 40°50' E 014°18'0 0.0
2015-Mar-28 11:32N 40°50' E 014°18'0 0.0
2015-Mar-28 07:20N 40°50' E 014°18'0 0.0
2015-Mar-28 06:07N 40°50' E 014°18'0 0.0
2015-Mar-28 05:22N 40°50' E 014°18'0 0.0
2015-Mar-28 04:25N 40°50' E 014°18'0 0.0
2015-Mar-28 03:31N 40°50' E 014°18'0 0.0
2015-Mar-28 02:28N 40°50' E 014°18'0 0.0
2015-Mar-27 23:31N 40°50' E 014°18'0 0.0
2015-Mar-27 22:25N 40°50' E 014°18'0 0.0
2015-Mar-27 21:25N 40°50' E 014°18'0 0.0
2015-Mar-27 18:13N 40°50' E 014°18'0 0.0
2015-Mar-27 16:31N 40°50' E 014°18'0 0.0
2015-Mar-27 15:13N 40°50' E 014°18'0 0.0
2015-Mar-27 13:19N 40°50' E 014°18'0 0.0
2015-Mar-27 07:13N 40°50' E 014°18'0 0.0
2015-Mar-27 05:25N 40°50' E 014°18'0 0.0
2015-Mar-27 04:25N 40°50' E 014°18'0 0.0
2015-Mar-27 03:19N 40°50' E 014°18'0 0.0
2015-Mar-27 01:31N 40°50' E 014°18'2 2.3
2015-Mar-27 00:34N 40°48' E 014°18'1 0.9
2015-Mar-26 23:33N 40°47' E 014°18'9 9.4
2015-Mar-26 22:33N 40°38' E 014°13'1111.1
2015-Mar-26 21:33N 40°27' E 014°14'13812.3
2015-Mar-26 10:17N 38°18' E 015°17'6 7.3
2015-Mar-26 09:31N 38°13' E 015°16'0 0.0
2015-Mar-26 08:31N 38°13' E 015°16'0 0.0
2015-Mar-26 07:25N 38°13' E 015°16'0 0.0
2015-Mar-26 06:31N 38°13' E 015°16'0 0.0
2015-Mar-25 18:31N 38°13' E 015°16'0 0.0
2015-Mar-25 17:31N 38°13' E 015°16'0 0.0
2015-Mar-25 16:31N 38°13' E 015°16'0 0.0
2015-Mar-25 15:31N 38°13' E 015°16'0 0.0
2015-Mar-25 14:31N 38°13' E 015°16'0 0.0
2015-Mar-25 13:31N 38°13' E 015°16'0 0.0
2015-Mar-25 12:31N 38°13' E 015°16'0 0.0
2015-Mar-25 10:13N 38°13' E 015°16'0 0.0
2015-Mar-25 09:31N 38°13' E 015°16'0 0.0
2015-Mar-25 08:31N 38°13' E 015°16'0 0.0
2015-Mar-25 07:31N 38°13' E 015°16'0 0.0
2015-Mar-25 06:31N 38°13' E 015°16'0 0.0
2015-Mar-24 18:30N 38°13' E 015°16'0 0.0
2015-Mar-24 17:30N 38°13' E 015°16'0 0.0
2015-Mar-24 16:30N 38°13' E 015°16'0 0.0
2015-Mar-24 15:30N 38°13' E 015°16'147 7.0
2015-Mar-23 18:33N 40°31' E 014°09'1212.0
2015-Mar-23 17:33N 40°42' E 014°14'8 8.4
2015-Mar-23 16:33N 40°50' E 014°18'0 0.0
2015-Mar-23 14:23N 40°50' E 014°18'0 0.0
2015-Mar-23 12:29N 40°50' E 014°18'0 0.0
2015-Mar-23 11:14N 40°50' E 014°18'0 0.0
2015-Mar-23 09:32N 40°50' E 014°18'0 0.0
2015-Mar-23 08:17N 40°50' E 014°18'0 0.0
2015-Mar-23 03:23N 40°50' E 014°18'0 0.0
2015-Mar-22 10:22N 40°50' E 014°18'0 0.0
2015-Mar-22 08:04N 40°50' E 014°18'0 0.0
2015-Mar-22 05:16N 40°50' E 014°18'0 0.0
2015-Mar-22 02:10N 40°50' E 014°18'0 0.0
2015-Mar-22 00:29N 40°50' E 014°18'0 0.0
2015-Mar-21 22:10N 40°50' E 014°18'0 0.0
2015-Mar-21 21:10N 40°50' E 014°18'0 0.0
2015-Mar-21 20:07N 40°50' E 014°18'0 0.0
2015-Mar-21 19:13N 40°50' E 014°18'0 0.0
2015-Mar-21 18:31N 40°50' E 014°18'0 0.0
2015-Mar-21 17:19N 40°50' E 014°18'0 0.0
2015-Mar-21 14:25N 40°50' E 014°18'0 0.0
2015-Mar-21 13:20N 40°50' E 014°18'1 1.2
2015-Mar-21 12:32N 40°49' E 014°18'8 7.8
2015-Mar-21 11:33N 40°43' E 014°14'1212.1
2015-Mar-21 10:33N 40°32' E 014°06'1412.6
2015-Mar-21 09:26N 40°20' E 014°14'  

Dump ship's entire track history